Latest Weather Observations for Argyle

IDD60801

Issued at 11:31 pm CST Sunday 20 May 2018 (issued every 10 minutes, with the page automatically refreshed every 10 minutes)

About weather observations | Map of weather stations | Latest weather observations for NT | Other Formats
Station Details ID: 002064 Name: ARGYLE AERODROME Lat: -16.64 Lon: 128.45 Height: 164.0 m
Data from the previous 72 hours. | See also: Recent months at Argyle
Date/Time
CST
Temp
°C
App
Temp
°C
Dew
Point
°C
Rel
Hum
%
Delta-T
°C
Wind Press
QNH
hPa
Press
MSL
hPa
Rain since
9am
mm
Dir  Spd
km/h
Gust
km/h
Spd
kts
Gust
kts
20/11:30pm 21.4 17.5 3.6 31 8.6 SE 13 15 7 8 1017.8 1017.0 0.0
20/11:00pm 20.2 17.3 4.9 36 7.5 E 9 11 5 6 1018.0 1017.2 0.0
20/10:30pm 20.3 17.2 5.4 37 7.4 ESE 11 11 6 6 1017.8 1017.0 0.0
20/10:00pm 20.9 18.1 5.2 35 7.8 ESE 9 11 5 6 1017.8 1017.0 0.0
20/09:30pm 21.5 18.3 5.2 34 8.1 E 11 13 6 7 1017.8 1017.0 0.0
20/09:00pm 21.7 18.9 5.0 33 8.3 E 9 11 5 6 1017.4 1016.6 0.0
20/08:30pm 22.4 19.7 5.8 34 8.4 SE 9 13 5 7 1016.9 1016.1 0.0
20/08:00pm 22.9 20.4 6.6 35 8.4 ESE 9 11 5 6 1016.5 1015.7 0.0
20/07:30pm 23.6 21.0 6.1 32 9.0 ESE 9 11 5 6 1016.1 1015.3 0.0
20/07:00pm 24.6 22.0 6.0 30 9.6 E 9 9 5 5 1015.7 1014.8 0.0
20/06:30pm 26.6 22.9 4.3 24 11.3 E 13 17 7 9 1015.4 1014.5 0.0
20/06:00pm 28.1 24.3 3.9 21 12.3 E 13 20 7 11 1014.9 1014.0 0.0
20/05:30pm 28.8 23.6 3.6 20 12.8 ENE 20 30 11 16 1014.5 1013.6 0.0
20/05:00pm 29.5 24.8 2.9 18 13.4 ENE 17 33 9 18 1014.3 1013.4 0.0
20/04:30pm 29.6 24.3 2.8 18 13.5 ENE 20 32 11 17 1014.2 1013.3 0.0
20/04:00pm 29.6 24.3 2.0 17 13.7 ENE 19 32 10 17 1014.3 1013.4 0.0
20/03:30pm 29.8 24.9 1.7 16 13.9 E 17 30 9 16 1014.5 1013.6 0.0
20/03:00pm 29.6 24.2 1.2 16 13.9 ESE 19 30 10 16 1014.5 1013.6 0.0
20/02:30pm 28.8 23.0 0.2 15 13.7 ESE 20 35 11 19 1014.5 1013.6 0.0
20/02:00pm 28.6 23.2 -1.2 14 13.9 ESE 17 24 9 13 1015.1 1014.2 0.0
20/01:30pm 27.9 22.5 -1.2 15 13.5 ESE 17 30 9 16 1015.6 1014.7 0.0
20/01:00pm 27.7 21.7 -1.8 14 13.5 ESE 20 33 11 18 1016.2 1015.4 0.0
20/12:30pm 27.4 20.9 -2.1 14 13.4 ESE 22 32 12 17 1016.6 1015.8 0.0
20/12:00pm 26.6 20.5 -2.3 15 13.0 ESE 20 35 11 19 1017.0 1016.2 0.0
20/11:30am 25.8 19.3 -2.5 15 12.6 ESE 22 39 12 21 1017.6 1016.8 0.0
20/11:00am 24.6 19.5 -2.3 16 11.9 ESE 15 24 8 13 1018.1 1017.3 0.0
20/10:30am 23.8 18.6 -2.9 17 11.6 ESE 15 26 8 14 1018.2 1017.4 0.0
20/10:00am 22.6 17.7 -3.1 18 11.0 ESE 13 22 7 12 1018.5 1017.6 0.0
20/09:30am 22.2 16.6 -2.7 18 10.7 SE 17 24 9 13 1018.5 1017.6 0.0
20/09:00am 21.1 17.0 -3.0 19 10.2 SE 9 15 5 8 1018.4 1017.5 0.0
20/08:30am 19.1 15.9 -0.3 27 8.5 ESE 6 7 3 4 1017.9 1017.1 0.0
20/08:00am 17.4 15.0 -0.5 29 7.7 SSW 2 6 1 3 1017.5 1016.7 0.0
20/07:30am 16.8 13.5 -1.6 28 7.7 WSW 6 7 3 4 1017.1 1016.3 0.0
20/07:00am 16.5 14.4 -0.7 31 7.3 CALM 0 0 0 0 1016.8 1016.0 0.0
20/06:30am 17.2 14.7 -0.8 29 7.7 SW 2 6 1 3 1016.5 1015.7 0.0
20/06:00am 17.0 13.6 -2.4 26 8.0 W 6 7 3 4 1016.4 1015.6 0.0
20/05:30am 17.1 13.7 -2.2 26 8.0 NW 6 7 3 4 1016.2 1015.4 0.0
20/05:00am 17.1 13.5 -2.2 26 8.0 NW 7 7 4 4 1016.3 1015.5 0.0
20/04:30am 16.6 13.1 -1.2 29 7.5 N 7 7 4 4 1016.1 1015.3 0.0
20/04:00am 17.5 12.6 -3.1 24 8.4 SE 13 17 7 9 1016.0 1015.2 0.0
20/03:30am 18.6 13.3 -3.7 21 9.1 SE 15 20 8 11 1016.1 1015.3 0.0
20/03:00am 18.2 13.4 -2.9 23 8.7 SE 13 15 7 8 1016.2 1015.4 0.0
20/02:30am 18.1 13.7 -2.2 25 8.5 SE 11 13 6 7 1016.3 1015.5 0.0
20/02:00am 17.6 13.4 -0.8 28 7.9 ESE 11 13 6 7 1016.6 1015.8 0.0
20/01:30am 18.5 14.6 -1.8 25 8.6 ENE 9 11 5 6 1017.0 1016.2 0.0
20/01:00am 18.2 14.7 -1.6 26 8.4 ENE 7 9 4 5 1017.0 1016.2 0.0
20/12:30am 18.2 14.4 -0.5 28 8.1 E 9 9 5 5 1017.2 1016.4 0.0
20/12:00am 18.8 15.0 -0.8 26 8.5 ESE 9 13 5 7 1017.4 1016.6 0.0
 
Date/Time
CST
Temp
°C
App
Temp
°C
Dew
Point
°C
Rel
Hum
%
Delta-T
°C
Wind Press
QNH
hPa
Press
MSL
hPa
Rain since
9am
mm
Dir  Spd
km/h
Gust
km/h
Spd
kts
Gust
kts
19/11:30pm 19.0 15.2 -0.5 27 8.5 E 9 11 5 6 1017.7 1016.9 0.0
19/11:00pm 19.5 15.6 -1.4 24 9.0 E 9 11 5 6 1017.8 1017.0 0.0
19/10:30pm 22.5 16.8 -3.8 17 11.1 SE 17 26 9 14 1017.6 1016.8 0.0
19/10:00pm 23.2 17.9 -4.0 16 11.5 SE 15 20 8 11 1017.3 1016.5 0.0
19/09:30pm 23.3 18.0 -3.7 16 11.5 SE 15 22 8 12 1017.2 1016.4 0.0
19/09:00pm 23.3 18.4 -3.2 17 11.4 SE 13 19 7 10 1016.8 1016.0 0.0
19/08:30pm 23.6 18.7 -3.4 16 11.6 SE 13 17 7 9 1016.4 1015.6 0.0
19/08:00pm 23.0 18.5 -3.0 17 11.2 SE 11 17 6 9 1015.9 1015.0 0.0
19/07:30pm 23.0 19.1 -1.2 20 10.8 SE 9 11 5 6 1015.6 1014.7 0.0
19/07:00pm 23.7 19.9 -0.9 19 11.1 SE 9 11 5 6 1015.2 1014.3 0.0
19/06:30pm 25.2 20.4 -2.6 16 12.3 ESE 13 17 7 9 1014.9 1014.0 0.0
19/06:00pm 26.6 21.2 -4.2 13 13.4 ESE 15 26 8 14 1014.6 1013.7 0.0
19/05:30pm 27.4 21.0 -4.5 12 13.9 SE 20 32 11 17 1014.3 1013.4 0.0
19/05:00pm 27.5 21.7 -4.8 11 14.0 ESE 17 32 9 17 1013.9 1013.0 0.0
19/04:30pm 28.0 21.6 -4.9 11 14.3 E 20 30 11 16 1013.8 1012.9 0.0
19/04:00pm 28.2 22.1 -4.3 11 14.3 SE 19 28 10 15 1013.9 1013.0 0.0
19/03:30pm 27.9 21.7 -5.2 11 14.3 ESE 19 28 10 15 1013.9 1013.0 0.0
19/03:00pm 28.1 21.7 -5.2 11 14.4 E 20 32 11 17 1014.2 1013.3 0.0
19/02:30pm 27.8 21.6 -4.4 12 14.1 E 19 33 10 18 1014.4 1013.5 0.0
19/02:00pm 26.9 20.4 -5.5 11 13.8 E 20 30 11 16 1014.9 1014.0 0.0
19/01:30pm 27.4 20.9 -5.7 11 14.1 E 20 32 11 17 1015.3 1014.4 0.0
19/01:00pm 26.8 19.9 -6.5 10 13.9 E 22 37 12 20 1015.8 1014.9 0.0
19/12:30pm 25.9 19.0 -5.8 12 13.3 E 22 33 12 18 1016.4 1015.6 0.0
19/12:00pm 24.8 17.4 -7.0 11 12.9 ESE 24 35 13 19 1016.7 1015.9 0.0
19/11:30am 24.4 17.5 -6.5 12 12.6 ESE 22 33 12 18 1017.2 1016.4 0.0
19/11:00am 23.5 15.8 -6.9 12 12.2 E 26 35 14 19 1017.8 1017.0 0.0
19/10:30am 22.8 16.3 -5.6 14 11.6 ESE 20 32 11 17 1018.0 1017.2 0.0
19/10:00am 22.3 16.0 -5.9 14 11.4 ESE 19 30 10 16 1018.4 1017.5 0.0
19/09:30am 20.8 16.3 -3.3 19 10.1 ESE 11 17 6 9 1018.4 1017.5 0.0
19/09:00am 18.9 15.7 -0.7 26 8.5 SE 6 9 3 5 1018.0 1017.2 0.0
19/08:30am 17.3 15.2 -0.7 29 7.7 CALM 0 0 0 0 1017.9 1017.1 0.0
19/08:00am 16.4 17.3 16.2 99 0.1 N 6 7 3 4 1017.6 1016.8 0.0
19/07:30am 14.0 14.4 13.8 99 0.1 ENE 4 6 2 3 1017.2 1016.4 0.0
19/07:00am 14.3 14.0 14.3 100 0.0 ESE 9 9 5 5 1016.7 1015.9 0.0
19/06:30am 14.6 14.4 14.6 100 0.0 SE 9 9 5 5 1016.4 1015.6 0.0
19/06:00am 15.8 15.3 15.8 100 0.0 SE 13 15 7 8 1016.3 1015.5 0.0
19/05:30am 16.2 15.4 16.2 100 0.0 SE 15 17 8 9 1016.1 1015.3 0.0
19/05:00am 16.0 15.5 16.0 100 0.0 SE 13 17 7 9 1016.1 1015.3 0.0
19/04:30am 16.6 16.4 16.6 100 0.0 ESE 13 15 7 8 1016.3 1015.5 0.0
19/04:00am 16.3 15.9 16.3 100 0.0 ESE 13 15 7 8 1016.1 1015.3 0.0
19/03:30am 16.4 16.0 16.2 99 0.1 ESE 13 15 7 8 1016.2 1015.4 0.0
19/03:00am 16.4 16.5 16.4 100 0.0 ESE 11 13 6 7 1016.3 1015.5 0.0
19/02:30am 17.1 17.8 17.1 100 0.0 E 9 13 5 7 1016.8 1016.0 0.0
19/02:00am 17.0 17.7 17.0 100 0.0 ENE 9 11 5 6 1016.9 1016.1 0.0
19/01:30am 17.2 17.9 17.0 99 0.1 ENE 9 11 5 6 1016.8 1016.0 0.0
19/01:00am 17.8 18.8 17.8 100 0.0 ESE 9 11 5 6 1016.9 1016.1 0.0
19/12:30am 17.8 18.8 17.8 100 0.0 ENE 9 11 5 6 1017.1 1016.3 0.0
19/12:00am 18.5 19.7 18.3 99 0.1 NE 9 13 5 7 1017.4 1016.6 0.0
 
Date/Time
CST
Temp
°C
App
Temp
°C
Dew
Point
°C
Rel
Hum
%
Delta-T
°C
Wind Press
QNH
hPa
Press
MSL
hPa
Rain since
9am
mm
Dir  Spd
km/h
Gust
km/h
Spd
kts
Gust
kts
18/11:30pm 18.7 20.5 18.7 100 0.0 ENE 7 11 4 6 1017.5 1016.7 0.0
18/11:00pm 18.4 20.1 18.1 98 0.2 E 6 9 3 5 1017.5 1016.7 0.0
18/10:30pm 17.5 18.8 17.5 100 0.0 ESE 7 9 4 5 1017.5 1016.7 0.0
18/10:00pm 18.4 20.1 18.4 100 0.0 E 7 9 4 5 1017.4 1016.6 0.0
18/09:30pm 18.7 20.1 18.7 100 0.0 E 9 11 5 6 1017.2 1016.4 0.0
18/09:00pm 19.6 21.4 19.6 100 0.0 SE 9 13 5 7 1017.1 1016.3 0.0
18/08:30pm 21.0 23.1 21.0 100 0.0 SE 11 13 6 7 1016.7 1015.9 0.0
18/08:00pm 22.7 25.2 22.4 98 0.2 SE 13 17 7 9 1016.1 1015.3 0.0
18/07:30pm 23.0 19.4 2.9 26 9.7 SE 11 15 6 8 1015.8 1014.9 0.0
18/07:00pm 23.8 20.2 0.5 21 10.8 ESE 9 13 5 7 1015.4 1014.5 0.0
18/06:30pm 25.3 21.0 -1.9 16 12.2 ESE 11 17 6 9 1015.0 1014.1 0.0
18/06:00pm 26.5 20.9 -3.0 14 13.1 ESE 17 24 9 13 1014.7 1013.8 0.0
18/05:30pm 27.4 21.2 -3.0 13 13.6 ESE 20 30 11 16 1014.4 1013.5 0.0
18/05:00pm 27.5 20.9 -3.2 13 13.7 E 22 33 12 18 1014.2 1013.3 0.0
18/04:30pm 28.4 22.1 -3.7 12 14.3 ESE 20 32 11 17 1014.0 1013.1 0.0
18/04:00pm 28.3 21.7 -3.5 12 14.2 E 22 35 12 19 1014.0 1013.1 0.0
18/03:30pm 28.6 22.5 -3.6 12 14.4 ESE 19 28 10 15 1014.2 1013.3 0.0
18/03:00pm 28.2 21.6 -3.3 12 14.1 ESE 22 33 12 18 1014.4 1013.5 0.0
18/02:30pm 28.1 21.1 -3.6 12 14.1 E 24 37 13 20 1014.7 1013.8 0.0
18/02:00pm 27.6 20.7 -3.0 13 13.7 E 24 37 13 20 1014.9 1014.0 0.0
18/01:30pm 27.4 20.5 -3.0 13 13.6 ESE 24 35 13 19 1015.4 1014.5 0.0
18/01:00pm 25.6 19.6 -3.0 15 12.6 ESE 19 35 10 19 1016.3 1015.5 0.0
18/12:30pm 25.3 18.3 -3.8 14 12.6 ESE 24 41 13 22 1016.8 1016.0 0.0
18/12:00pm 24.5 18.3 -3.5 15 12.1 ESE 20 33 11 18 1017.2 1016.4 0.0
18/11:30am 24.4 18.4 -3.3 15 12.0 ESE 19 30 10 16 1018.1 1017.3 0.0
18/11:00am 22.7 16.1 -3.3 17 11.1 ESE 22 35 12 19 1018.9 1018.0 0.0
18/10:30am 22.0 15.0 -3.7 17 10.8 ESE 24 37 13 20 1019.3 1018.4 0.0
18/10:00am 21.1 13.3 -3.5 19 10.3 SE 28 39 15 21 1019.2 1018.3 0.0
18/09:30am 20.2 13.2 -3.3 20 9.8 ESE 24 33 13 18 1019.1 1018.2 0.0
18/09:00am 19.3 12.3 -3.6 21 9.4 ESE 24 30 13 16 1018.9 1018.0 0.0
18/08:30am 17.8 12.6 -2.9 24 8.5 SE 15 24 8 13 1018.6 1017.7 0.0
18/08:00am 15.9 11.5 -2.2 29 7.4 ESE 11 15 6 8 1018.5 1017.6 0.0
18/07:30am 14.2 9.4 -2.6 31 6.7 ESE 13 13 7 7 1018.0 1017.2 0.0
18/07:00am 14.1 9.2 -3.2 30 6.8 ESE 13 15 7 8 1017.9 1017.1 0.0
18/06:30am 13.9 9.1 -2.8 31 6.6 ESE 13 15 7 8 1017.7 1016.9 0.0
18/06:00am 14.2 9.3 -3.0 30 6.8 ESE 13 15 7 8 1017.6 1016.8 0.0
18/05:30am 14.2 9.7 -3.0 30 6.8 ESE 11 13 6 7 1017.8 1017.0 0.0
18/05:00am 14.3 9.5 -2.8 30 6.8 ESE 13 15 7 8 1017.6 1016.8 0.0
18/04:30am 14.6 9.7 -3.1 29 7.0 ESE 13 17 7 9 1017.7 1016.9 0.0
18/04:00am 16.6 11.3 -3.7 24 8.1 SE 15 19 8 10 1017.6 1016.8 0.0
18/03:30am 15.6 11.1 -3.2 27 7.5 ESE 11 19 6 10 1017.8 1017.0 0.0
18/03:00am 15.7 12.0 -2.6 28 7.4 E 7 9 4 5 1017.9 1017.1 0.0
18/02:30am 16.2 12.2 -2.4 28 7.6 ENE 9 11 5 6 1018.2 1017.4 0.0
18/02:00am 15.9 11.4 -3.0 27 7.6 ENE 11 11 6 6 1018.2 1017.4 0.0
18/01:30am 15.5 11.1 -2.6 28 7.3 E 11 13 6 7 1018.5 1017.6 0.0

Other Formats:

Comma delimited format used in spreadsheet applications
http://www.bom.gov.au/fwo/IDD60801/IDD60801.94217.axf

JavaScript Object Notation format (JSON) in row-major order
http://www.bom.gov.au/fwo/IDD60801/IDD60801.94217.json